Time;durP1;ratioP1;P1;durP2;ratioP2;P2;SDS_P1;SDS_P2;PMS_P1;PMS_P2;Temp;Humidity;BMP_temperature;BMP_pressure;BME280_temperature;BME280_humidity;BME280_pressure;Samples;Min_cycle;Max_cycle;Signal;HPM_P1;HPM_P2
2023/09/12 00:02:07;;;;;;;24.08;14.60;;;22.90;83.90;;;;;;4991802;28;20382;-67
2023/09/12 00:05:11;;;;;;;24.58;15.15;;;23.00;83.10;;;;;;4991821;28;20053;-66
2023/09/12 00:08:15;;;;;;;24.55;13.55;;;22.90;84.30;;;;;;4991981;28;20041;-68
2023/09/12 00:11:19;;;;;;;27.40;14.35;;;22.80;83.90;;;;;;4991329;28;20038;-68
2023/09/12 00:14:22;;;;;;;24.75;15.05;;;22.80;83.90;;;;;;4991153;28;20053;-68
2023/09/12 00:17:26;;;;;;;24.80;13.80;;;22.70;84.40;;;;;;4991778;28;20045;-68
2023/09/12 00:20:30;;;;;;;29.58;14.98;;;22.80;84.10;;;;;;4991231;28;20045;-68
2023/09/12 00:23:35;;;;;;;21.15;14.10;;;22.90;83.60;;;;;;4991379;28;20041;-66
2023/09/12 00:26:38;;;;;;;25.75;15.38;;;22.80;83.90;;;;;;4991469;28;20041;-68
2023/09/12 00:29:42;;;;;;;30.70;15.57;;;22.90;83.70;;;;;;4991193;28;20049;-68
2023/09/12 00:32:46;;;;;;;22.85;15.45;;;22.80;83.70;;;;;;5003530;28;20072;-68
2023/09/12 00:35:51;;;;;;;29.33;14.77;;;22.70;84.40;;;;;;5030737;28;20113;-68
2023/09/12 00:38:54;;;;;;;28.02;16.05;;;22.80;84.20;;;;;;5030657;28;20056;-68
2023/09/12 00:42:01;;;;;;;26.65;16.48;;;22.80;84.90;;;;;;5029830;28;20052;-68
2023/09/12 00:45:06;;;;;;;26.52;17.00;;;22.60;85.50;;;;;;5030702;28;20072;-68
2023/09/12 00:48:10;;;;;;;29.02;16.70;;;22.60;86.50;;;;;;5029902;28;20060;-68
2023/09/12 00:51:16;;;;;;;27.98;18.50;;;22.60;87.00;;;;;;5030600;28;20405;-67
2023/09/12 00:54:20;;;;;;;27.02;17.35;;;22.30;87.50;;;;;;5030485;28;20045;-68
2023/09/12 00:57:26;;;;;;;24.88;17.27;;;22.50;87.40;;;;;;5030659;28;20044;-68
2023/09/12 01:00:30;;;;;;;31.20;18.30;;;22.60;87.60;;;;;;5030280;28;20053;-68
2023/09/12 01:03:35;;;;;;;22.60;18.13;;;22.80;87.30;;;;;;5018728;28;20053;-68
2023/09/12 01:06:40;;;;;;;30.33;18.80;;;22.60;87.50;;;;;;5030624;28;20397;-67
2023/09/12 01:09:45;;;;;;;20.88;17.05;;;22.60;87.80;;;;;;5030992;28;20381;-69
2023/09/12 01:12:48;;;;;;;25.33;17.50;;;22.60;88.30;;;;;;5030747;28;20060;-68
2023/09/12 01:15:53;;;;;;;26.80;17.98;;;22.40;87.90;;;;;;5029747;28;20171;-68
2023/09/12 01:18:57;;;;;;;29.77;18.58;;;22.50;88.40;;;;;;5029593;28;20056;-68
2023/09/12 01:22:15;;;;;;;25.35;17.63;;;22.40;88.50;;;;;;5031656;28;20192;-66
2023/09/12 01:25:59;;;;;;;22.52;16.90;;;22.40;88.60;;;;;;5033657;28;20051;-67
2023/09/12 01:29:05;;;;;;;24.27;17.95;;;22.40;88.70;;;;;;5034114;28;20060;-67
2023/09/12 01:32:10;;;;;;;30.83;18.33;;;22.50;87.90;;;;;;5033410;28;20053;-66
2023/09/12 01:35:14;;;;;;;28.40;19.13;;;22.50;88.10;;;;;;5034126;28;20065;-68
2023/09/12 01:38:18;;;;;;;28.88;18.65;;;22.40;88.60;;;;;;5033007;28;20049;-67
2023/09/12 01:41:22;;;;;;;30.73;19.55;;;22.40;88.70;;;;;;5033816;28;20056;-67
2023/09/12 01:44:28;;;;;;;29.77;18.40;;;22.30;88.90;;;;;;5033774;28;20060;-67
2023/09/12 01:47:34;;;;;;;31.75;18.85;;;22.20;89.10;;;;;;5033349;28;20052;-66
2023/09/12 01:50:38;;;;;;;32.08;18.85;;;22.30;88.90;;;;;;5033522;28;20057;-67
2023/09/12 01:53:45;;;;;;;34.88;17.85;;;22.30;88.20;;;;;;5033600;28;20044;-67
2023/09/12 01:56:51;;;;;;;29.05;17.70;;;22.20;89.20;;;;;;5032491;28;20044;-67
2023/09/12 01:59:55;;;;;;;27.50;18.88;;;22.10;89.50;;;;;;5032346;28;20052;-67
2023/09/12 02:02:59;;;;;;;23.70;18.73;;;22.10;89.40;;;;;;5055273;28;20040;-67
2023/09/12 02:06:03;;;;;;;30.00;18.70;;;22.00;89.40;;;;;;5020837;28;20511;-67
2023/09/12 02:09:10;;;;;;;27.42;18.80;;;22.10;89.60;;;;;;5033430;28;20044;-67
2023/09/12 02:12:14;;;;;;;31.20;20.08;;;21.80;89.30;;;;;;5033202;28;20048;-67
2023/09/12 02:15:18;;;;;;;23.70;17.23;;;22.00;89.40;;;;;;5032285;28;20045;-67
2023/09/12 02:18:22;;;;;;;29.58;18.58;;;22.00;89.50;;;;;;5032644;28;20068;-68
2023/09/12 02:21:26;;;;;;;27.15;19.45;;;22.00;89.50;;;;;;5032703;28;20369;-68
2023/09/12 02:24:36;;;;;;;25.23;17.98;;;22.10;89.00;;;;;;5032823;28;20048;-68
2023/09/12 02:27:40;;;;;;;25.23;17.85;;;22.10;88.90;;;;;;5033122;28;20060;-67
2023/09/12 02:30:44;;;;;;;22.17;18.13;;;22.10;89.30;;;;;;5031952;28;20052;-68
2023/09/12 02:33:48;;;;;;;28.88;18.17;;;22.50;89.20;;;;;;5031438;28;20060;-68
2023/09/12 02:36:53;;;;;;;28.10;18.02;;;22.10;88.10;;;;;;5032761;28;20060;-67
2023/09/12 02:39:56;;;;;;;32.80;18.30;;;22.20;88.70;;;;;;5032488;28;20052;-67
2023/09/12 02:43:00;;;;;;;25.50;18.58;;;22.10;88.80;;;;;;5031796;28;20056;-67
2023/09/12 02:46:04;;;;;;;29.95;17.85;;;21.40;88.90;;;;;;5020584;28;20048;-67
2023/09/12 02:49:08;;;;;;;23.33;17.13;;;21.90;89.00;;;;;;5031941;28;20052;-68
2023/09/12 02:52:17;;;;;;;24.98;18.27;;;21.90;89.30;;;;;;5032274;28;20044;-68
2023/09/12 02:55:21;;;;;;;22.40;17.45;;;21.60;89.90;;;;;;5032606;28;20044;-67
2023/09/12 02:58:25;;;;;;;24.67;17.75;;;22.00;91.00;;;;;;5031174;28;20076;-68
2023/09/12 03:01:28;;;;;;;28.95;17.13;;;21.20;90.50;;;;;;5032183;28;20054;-67
2023/09/12 03:04:35;;;;;;;21.70;15.90;;;21.40;90.20;;;;;;5031028;28;20104;-67
2023/09/12 03:07:39;;;;;;;24.42;16.27;;;21.30;90.50;;;;;;5031410;28;20053;-68
2023/09/12 03:10:43;;;;;;;22.92;14.90;;;21.50;90.00;;;;;;5031023;28;20064;-67
2023/09/12 03:13:47;;;;;;;21.02;13.73;;;21.60;89.20;;;;;;5032125;28;20065;-68
2023/09/12 03:16:51;;;;;;;20.60;13.77;;;21.80;88.50;;;;;;5031139;28;20048;-67
2023/09/12 03:19:55;;;;;;;19.75;15.43;;;21.80;87.70;;;;;;5031686;28;20052;-68
2023/09/12 03:22:59;;;;;;;20.85;15.07;;;21.80;88.00;;;;;;5032029;28;20052;-67
2023/09/12 03:26:04;;;;;;;22.60;15.82;;;21.80;87.80;;;;;;5030762;28;20535;-67
2023/09/12 03:29:09;;;;;;;21.80;15.23;;;21.80;87.80;;;;;;5030675;28;20053;-68
2023/09/12 03:32:13;;;;;;;28.73;14.95;;;21.30;87.50;;;;;;5030513;28;20051;-67
2023/09/12 03:35:17;;;;;;;19.33;14.30;;;21.60;88.10;;;;;;5030809;28;20052;-67
2023/09/12 03:38:20;;;;;;;22.05;15.25;;;21.60;88.10;;;;;;5030889;28;20044;-67
2023/09/12 03:41:25;;;;;;;22.55;14.55;;;21.60;88.20;;;;;;5030811;28;20048;-66
2023/09/12 03:44:30;;;;;;;20.60;14.15;;;21.50;88.50;;;;;;5030315;28;20045;-67
2023/09/12 03:47:34;;;;;;;20.58;14.38;;;21.50;88.80;;;;;;5031447;28;20404;-67
2023/09/12 03:50:39;;;;;;;24.08;15.05;;;21.30;88.80;;;;;;5030771;28;20052;-67
2023/09/12 03:53:42;;;;;;;23.20;14.55;;;21.40;89.00;;;;;;5030446;28;20121;-66
2023/09/12 03:56:46;;;;;;;23.35;15.02;;;21.30;89.20;;;;;;5030475;28;20048;-67
2023/09/12 03:59:52;;;;;;;27.23;15.45;;;21.30;89.40;;;;;;5030105;28;20602;-67
2023/09/12 04:02:56;;;;;;;23.45;17.95;;;21.40;89.00;;;;;;5030549;28;20055;-67
2023/09/12 04:06:00;;;;;;;28.30;18.45;;;21.40;89.00;;;;;;5030259;28;20497;-67
2023/09/12 04:09:04;;;;;;;28.85;19.50;;;21.40;89.30;;;;;;5031031;28;20048;-67
2023/09/12 04:12:08;;;;;;;37.80;28.98;;;21.30;89.90;;;;;;5031216;28;20125;-67
2023/09/12 04:15:13;;;;;;;27.58;19.02;;;21.10;90.20;;;;;;5031154;28;20543;-67
2023/09/12 04:18:17;;;;;;;37.97;20.67;;;21.00;90.50;;;;;;5030079;28;20045;-67
2023/09/12 04:21:21;;;;;;;32.05;20.35;;;20.80;90.70;;;;;;5029743;28;20504;-67
2023/09/12 04:24:25;;;;;;;29.40;20.73;;;20.90;90.90;;;;;;5029959;28;20036;-67
2023/09/12 04:27:29;;;;;;;32.90;20.92;;;20.80;91.00;;;;;;5030897;28;20052;-67
2023/09/12 04:30:33;;;;;;;27.02;18.90;;;20.90;91.20;;;;;;5029845;28;20519;-67
2023/09/12 04:33:37;;;;;;;58.67;21.05;;;21.10;90.90;;;;;;5029633;28;20056;-67
2023/09/12 04:36:41;;;;;;;26.75;18.33;;;21.10;90.60;;;;;;5029905;28;20053;-67
2023/09/12 04:39:45;;;;;;;31.05;19.05;;;21.20;90.60;;;;;;5030271;28;20060;-67
2023/09/12 04:42:50;;;;;;;39.33;19.77;;;21.10;90.50;;;;;;5029601;28;20077;-67
2023/09/12 04:45:54;;;;;;;29.55;19.08;;;21.10;90.50;;;;;;5029782;28;20040;-67
2023/09/12 04:48:58;;;;;;;31.95;17.58;;;21.00;90.70;;;;;;5030626;28;20046;-67
2023/09/12 04:52:02;;;;;;;29.17;17.95;;;21.00;90.70;;;;;;5030320;28;20049;-67
2023/09/12 04:55:07;;;;;;;38.13;17.95;;;21.00;90.70;;;;;;5029584;28;20048;-67
2023/09/12 04:58:11;;;;;;;36.03;17.80;;;21.10;90.60;;;;;;5033189;28;20064;-67
2023/09/12 05:01:15;;;;;;;37.72;17.42;;;21.30;89.90;;;;;;5034240;28;20057;-67
2023/09/12 05:04:19;;;;;;;35.78;19.65;;;21.20;90.00;;;;;;5033590;28;20402;-67
2023/09/12 05:07:24;;;;;;;27.73;18.13;;;21.30;90.10;;;;;;5033538;28;20662;-67
2023/09/12 05:10:28;;;;;;;33.80;18.17;;;21.30;90.30;;;;;;5033167;28;20044;-66
2023/09/12 05:13:33;;;;;;;26.23;16.60;;;21.30;90.20;;;;;;5033394;28;20393;-66
2023/09/12 05:16:38;;;;;;;30.95;18.42;;;21.40;89.90;;;;;;5033116;28;20374;-67
2023/09/12 05:19:42;;;;;;;26.08;17.17;;;21.60;90.20;;;;;;5033131;28;20056;-67
2023/09/12 05:22:46;;;;;;;34.22;20.75;;;21.90;89.40;;;;;;5034215;28;20405;-67
2023/09/12 05:25:50;;;;;;;41.17;21.77;;;22.80;86.50;;;;;;5034131;28;20048;-67
2023/09/12 05:28:54;;;;;;;40.90;19.60;;;23.90;84.10;;;;;;5032706;28;20048;-66
2023/09/12 05:31:58;;;;;;;34.88;18.85;;;24.80;80.80;;;;;;5033198;28;20049;-65
2023/09/12 05:35:03;;;;;;;29.25;16.92;;;25.80;77.30;;;;;;5033783;28;20089;-65
2023/09/12 05:38:07;;;;;;;25.75;15.40;;;25.90;77.70;;;;;;5032522;28;20377;-65
2023/09/12 05:41:10;;;;;;;33.08;15.68;;;26.40;75.80;;;;;;5032728;28;20056;-65
2023/09/12 05:44:18;;;;;;;28.35;15.38;;;26.60;76.40;;;;;;5033956;28;20521;-66
2023/09/12 05:47:22;;;;;;;33.22;14.30;;;26.30;76.40;;;;;;5032830;28;20041;-65
2023/09/12 05:50:27;;;;;;;28.20;14.77;;;26.10;76.90;;;;;;5032593;28;20040;-65
2023/09/12 05:53:31;;;;;;;38.08;14.43;;;26.10;76.70;;;;;;5032725;28;20052;-66
2023/09/12 05:56:35;;;;;;;24.65;14.38;;;26.00;77.60;;;;;;5033695;28;20048;-67
2023/09/12 05:59:39;;;;;;;38.80;14.45;;;25.90;77.10;;;;;;5033095;28;20496;-67
2023/09/12 06:02:45;;;;;;;30.42;13.15;;;26.00;77.50;;;;;;5032464;28;20401;-67
2023/09/12 06:05:49;;;;;;;25.15;13.63;;;26.60;76.10;;;;;;5032630;28;20049;-67
2023/09/12 06:08:53;;;;;;;26.77;13.60;;;26.70;75.70;;;;;;5032812;28;20672;-67
2023/09/12 06:11:57;;;;;;;39.58;18.75;;;26.70;75.40;;;;;;5032921;28;20362;-67
2023/09/12 06:15:01;;;;;;;45.00;16.73;;;26.50;76.60;;;;;;5033266;28;20048;-67
2023/09/12 06:18:06;;;;;;;46.80;16.10;;;26.60;76.40;;;;;;5033365;28;20380;-67
2023/09/12 06:21:10;;;;;;;38.67;15.48;;;26.70;76.90;;;;;;5033109;28;20052;-68
2023/09/12 06:24:20;;;;;;;33.50;14.57;;;26.70;77.00;;;;;;5033113;28;20044;-68
2023/09/12 06:27:25;;;;;;;29.42;14.32;;;27.10;76.50;;;;;;5032921;28;20397;-68
2023/09/12 06:30:28;;;;;;;23.90;13.45;;;27.40;76.10;;;;;;5032515;28;20048;-65
2023/09/12 06:33:32;;;;;;;23.45;12.60;;;27.70;75.60;;;;;;5032602;28;20076;-68
2023/09/12 06:36:39;;;;;;;26.95;13.35;;;27.90;75.20;;;;;;5032824;28;20036;-69
2023/09/12 06:39:43;;;;;;;31.92;13.07;;;27.90;75.40;;;;;;5032225;28;20060;-68
2023/09/12 06:42:47;;;;;;;24.15;12.43;;;27.90;76.20;;;;;;5032532;28;20498;-66
2023/09/12 06:45:51;;;;;;;21.80;11.70;;;27.70;76.30;;;;;;5032262;28;20068;-67
2023/09/12 06:48:56;;;;;;;23.25;11.55;;;27.70;77.40;;;;;;5032467;28;20056;-67
2023/09/12 06:52:00;;;;;;;28.80;12.05;;;28.00;76.30;;;;;;5032461;28;20060;-68
2023/09/12 06:55:04;;;;;;;19.55;10.20;;;28.20;76.10;;;;;;5030847;28;20052;-67
2023/09/12 06:58:08;;;;;;;28.02;11.25;;;28.40;76.70;;;;;;5030113;28;20496;-68
2023/09/12 07:01:12;;;;;;;24.13;10.40;;;28.70;75.70;;;;;;5031622;28;20247;-67
2023/09/12 07:04:16;;;;;;;24.63;10.77;;;28.70;75.50;;;;;;5031871;28;20048;-67
2023/09/12 07:07:21;;;;;;;25.00;9.93;;;28.70;75.90;;;;;;5032037;28;20429;-67
2023/09/12 07:10:25;;;;;;;24.23;9.88;;;28.90;75.30;;;;;;5031677;28;20044;-68
2023/09/12 07:13:29;;;;;;;15.63;8.82;;;29.00;76.30;;;;;;5030945;28;20049;-68
2023/09/12 07:16:33;;;;;;;20.63;8.77;;;29.20;74.90;;;;;;5032154;28;20074;-68
2023/09/12 07:19:37;;;;;;;19.83;10.40;;;29.40;74.70;;;;;;5030535;28;20390;-68
2023/09/12 07:22:41;;;;;;;20.45;8.52;;;29.60;74.70;;;;;;5031844;28;20052;-68
2023/09/12 07:25:44;;;;;;;19.60;8.73;;;29.70;73.80;;;;;;5031690;28;20040;-68
2023/09/12 07:28:48;;;;;;;17.60;8.20;;;29.80;73.90;;;;;;5031593;28;20052;-68
2023/09/12 07:31:53;;;;;;;20.75;8.63;;;29.90;74.10;;;;;;5031582;28;20224;-68
2023/09/12 07:34:57;;;;;;;14.05;7.78;;;30.10;74.30;;;;;;5031736;28;20056;-68
2023/09/12 07:38:01;;;;;;;15.73;8.00;;;30.30;73.60;;;;;;5031454;28;20037;-68
2023/09/12 07:41:05;;;;;;;17.67;8.50;;;30.60;74.40;;;;;;5031178;28;20052;-68
2023/09/12 07:44:11;;;;;;;9.00;6.90;;;30.60;75.20;;;;;;5030819;28;20385;-68
2023/09/12 07:47:15;;;;;;;20.67;7.70;;;30.80;76.10;;;;;;5031589;28;20056;-68
2023/09/12 07:50:19;;;;;;;23.80;8.65;;;30.80;74.90;;;;;;5031106;28;20040;-67
2023/09/12 07:53:23;;;;;;;17.17;8.43;;;30.30;75.20;;;;;;5031574;28;20049;-67
2023/09/12 07:56:27;;;;;;;13.95;7.43;;;30.40;75.00;;;;;;5031443;28;20053;-67
2023/09/12 07:59:30;;;;;;;18.50;7.50;;;30.40;75.00;;;;;;5030987;28;20064;-67
2023/09/12 08:02:34;;;;;;;9.73;7.40;;;30.20;75.50;;;;;;5030456;28;20380;-67
2023/09/12 08:05:38;;;;;;;9.18;7.28;;;30.10;74.50;;;;;;5031572;28;20045;-67
2023/09/12 08:08:42;;;;;;;10.68;7.40;;;30.00;75.00;;;;;;5031238;28;20056;-67
2023/09/12 08:11:47;;;;;;;11.23;7.82;;;29.80;75.20;;;;;;5030996;28;20040;-67
2023/09/12 08:14:51;;;;;;;18.58;7.90;;;30.10;74.40;;;;;;5031402;28;20052;-67
2023/09/12 08:17:55;;;;;;;11.20;7.63;;;30.10;74.50;;;;;;5031069;28;20111;-67
2023/09/12 08:20:58;;;;;;;17.05;7.75;;;30.10;74.40;;;;;;5029867;28;20424;-67
2023/09/12 08:24:06;;;;;;;13.60;7.10;;;30.10;74.70;;;;;;5031048;28;20045;-67
2023/09/12 08:27:11;;;;;;;17.33;7.18;;;30.20;74.10;;;;;;5030851;28;20048;-67
2023/09/12 08:30:16;;;;;;;13.90;8.27;;;30.40;73.50;;;;;;5030838;28;20044;-67
2023/09/12 08:33:20;;;;;;;12.85;7.13;;;30.50;73.40;;;;;;5030892;28;20076;-67
2023/09/12 08:36:23;;;;;;;14.40;8.70;;;30.40;72.70;;;;;;5031291;28;20131;-67
2023/09/12 08:39:44;;;;;;;16.83;8.73;;;30.30;72.20;;;;;;5030867;28;20064;-67
2023/09/12 08:42:50;;;;;;;11.65;7.97;;;30.30;72.00;;;;;;5030808;28;20056;-67
2023/09/12 08:45:54;;;;;;;10.40;7.70;;;30.40;71.00;;;;;;5030907;28;20049;-67
2023/09/12 08:48:59;;;;;;;10.18;7.22;;;30.60;70.90;;;;;;5030530;28;20112;-67
2023/09/12 08:52:05;;;;;;;13.20;8.30;;;30.70;70.50;;;;;;5030414;28;20116;-67
2023/09/12 08:55:10;;;;;;;11.32;7.13;;;30.80;70.80;;;;;;5030615;28;20049;-67
2023/09/12 08:58:14;;;;;;;11.90;7.80;;;30.90;71.30;;;;;;5030669;28;20049;-68
2023/09/12 09:01:20;;;;;;;17.08;8.82;;;30.90;71.20;;;;;;5030446;28;20066;-67
2023/09/12 09:04:28;;;;;;;12.95;8.10;;;30.90;72.10;;;;;;5030210;28;20045;-67
2023/09/12 09:07:42;;;;;;;16.83;8.43;;;31.00;72.50;;;;;;5030556;28;20393;-68
2023/09/12 09:10:59;;;;;;;15.43;8.95;;;31.00;72.30;;;;;;5030303;28;20049;-68
2023/09/12 09:14:03;;;;;;;9.35;7.20;;;31.10;72.40;;;;;;5030505;28;20044;-68
2023/09/12 09:17:11;;;;;;;11.63;7.45;;;31.10;72.50;;;;;;5030451;28;20397;-68
2023/09/12 09:20:30;;;;;;;12.98;7.78;;;31.20;71.90;;;;;;5030034;28;20519;-69
2023/09/12 09:23:45;;;;;;;9.57;7.32;;;31.20;72.50;;;;;;5030144;28;20535;-68
2023/09/12 09:26:51;;;;;;;11.68;7.72;;;31.30;73.00;;;;;;5030510;28;20048;-69
2023/09/12 09:29:55;;;;;;;10.95;8.60;;;31.30;72.70;;;;;;5030074;28;20044;-69
2023/09/12 09:33:03;;;;;;;16.60;7.38;;;31.30;72.40;;;;;;5029473;28;20539;-69
2023/09/12 09:36:09;;;;;;;16.05;8.98;;;31.30;73.40;;;;;;5030172;28;20052;-71
2023/09/12 09:39:14;;;;;;;12.13;7.93;;;31.40;73.30;;;;;;5029973;28;20512;-68
2023/09/12 09:42:17;;;;;;;25.10;7.90;;;31.50;72.50;;;;;;5030160;28;20064;-75
2023/09/12 09:45:22;;;;;;;9.65;6.43;;;31.50;72.60;;;;;;5033856;28;20043;-69
2023/09/12 09:48:32;;;;;;;15.30;8.15;;;31.60;72.90;;;;;;5033777;28;20052;-67
2023/09/12 09:51:46;;;;;;;10.75;7.22;;;31.60;72.20;;;;;;5033769;28;20393;-69
2023/09/12 09:54:50;;;;;;;12.82;7.43;;;31.70;72.00;;;;;;5033544;28;20500;-69
2023/09/12 09:57:54;;;;;;;9.27;6.95;;;31.80;71.80;;;;;;5032510;28;20092;-70
2023/09/12 10:01:03;;;;;;;12.02;7.97;;;31.90;72.20;;;;;;5033086;28;20060;-67
2023/09/12 10:04:08;;;;;;;12.82;7.43;;;31.90;71.60;;;;;;5033243;28;20045;-68
2023/09/12 10:07:13;;;;;;;14.75;7.72;;;32.00;71.40;;;;;;5033491;28;20048;-70
2023/09/12 10:10:18;;;;;;;12.18;6.80;;;32.00;71.10;;;;;;5033096;28;20068;-69
2023/09/12 10:13:31;;;;;;;16.10;7.82;;;32.10;70.70;;;;;;5032870;28;20056;-69
2023/09/12 10:16:44;;;;;;;8.98;6.65;;;32.20;70.60;;;;;;5033268;28;20054;-69
2023/09/12 10:19:56;;;;;;;7.93;6.28;;;32.20;70.40;;;;;;5032827;28;20056;-71
2023/09/12 10:23:10;;;;;;;8.98;6.72;;;32.20;68.80;;;;;;5032732;28;20040;-68
2023/09/12 10:26:15;;;;;;;10.68;6.53;;;32.20;69.40;;;;;;5032633;28;20040;-69
2023/09/12 10:29:19;;;;;;;18.23;7.13;;;32.20;69.10;;;;;;5032772;28;20036;-68
2023/09/12 10:32:23;;;;;;;8.25;6.38;;;32.20;68.50;;;;;;5032611;28;20619;-67
2023/09/12 10:35:30;;;;;;;7.25;5.85;;;32.30;68.20;;;;;;5031742;28;20045;-68
2023/09/12 10:38:44;;;;;;;9.93;5.85;;;32.20;67.00;;;;;;5032900;28;20060;-68
2023/09/12 10:41:49;;;;;;;11.73;6.55;;;32.30;66.10;;;;;;5032388;28;20108;-69
2023/09/12 10:44:55;;;;;;;13.35;6.45;;;32.30;65.80;;;;;;5032832;28;20493;-68
2023/09/12 10:47:59;;;;;;;9.57;6.32;;;32.30;67.20;;;;;;5032580;28;20045;-68
2023/09/12 10:51:05;;;;;;;12.23;6.82;;;32.20;67.50;;;;;;5032494;28;20048;-68
2023/09/12 10:54:15;;;;;;;11.68;7.03;;;32.20;67.70;;;;;;5032420;28;20064;-68
2023/09/12 10:57:19;;;;;;;27.40;8.17;;;32.10;68.10;;;;;;5032621;28;20071;-68
2023/09/12 11:00:24;;;;;;;14.30;7.07;;;32.10;69.70;;;;;;5031714;28;20056;-68
2023/09/12 11:03:28;;;;;;;11.15;6.82;;;32.00;69.70;;;;;;5031889;28;20062;-69
2023/09/12 11:06:32;;;;;;;11.98;7.20;;;32.00;70.30;;;;;;5032033;28;20066;-68
2023/09/12 11:09:36;;;;;;;13.70;6.95;;;32.00;70.90;;;;;;5031660;28;20048;-68
2023/09/12 11:12:45;;;;;;;14.40;6.97;;;31.90;71.00;;;;;;5029911;28;20508;-68
2023/09/12 11:16:14;;;;;;;10.45;7.18;;;31.80;71.20;;;;;;5030296;28;20052;-68
2023/09/12 11:19:26;;;;;;;13.43;6.88;;;31.80;71.80;;;;;;5031189;28;20049;-68
2023/09/12 11:22:31;;;;;;;11.13;7.10;;;31.80;71.70;;;;;;5031327;28;20052;-68
2023/09/12 11:25:36;;;;;;;18.63;7.90;;;31.80;72.00;;;;;;5031647;28;20048;-68
2023/09/12 11:28:42;;;;;;;14.70;7.07;;;31.70;72.60;;;;;;5031948;28;20048;-69
2023/09/12 11:31:59;;;;;;;16.58;7.90;;;31.70;72.80;;;;;;5031920;28;20083;-68
2023/09/12 11:35:08;;;;;;;10.65;7.18;;;31.70;73.00;;;;;;5031757;28;20049;-67
2023/09/12 11:38:25;;;;;;;12.68;7.53;;;31.60;73.40;;;;;;5031331;28;20504;-67
2023/09/12 11:41:42;;;;;;;19.70;7.90;;;31.60;74.20;;;;;;5031367;28;20409;-68
2023/09/12 11:44:45;;;;;;;10.27;6.88;;;31.50;74.50;;;;;;5031433;28;20044;-68
2023/09/12 11:47:50;;;;;;;10.60;7.22;;;31.50;74.20;;;;;;5031497;28;20072;-68
2023/09/12 11:50:56;;;;;;;9.93;7.78;;;31.50;74.20;;;;;;5031042;28;20064;-68
2023/09/12 11:54:01;;;;;;;14.00;7.82;;;31.50;74.00;;;;;;5031142;28;20651;-68
2023/09/12 11:57:07;;;;;;;12.98;7.10;;;31.50;73.90;;;;;;5031196;28;20053;-68
2023/09/12 12:00:13;;;;;;;10.60;7.03;;;31.50;74.00;;;;;;5030941;28;20044;-68
2023/09/12 12:03:17;;;;;;;11.48;7.78;;;31.50;74.20;;;;;;5031340;28;20049;-68
2023/09/12 12:06:25;;;;;;;21.70;7.93;;;31.50;74.40;;;;;;5030668;28;20044;-68
2023/09/12 12:09:28;;;;;;;24.38;7.93;;;31.40;74.40;;;;;;5030775;28;20053;-67
2023/09/12 12:12:32;;;;;;;9.48;7.30;;;32.00;73.90;;;;;;5030621;28;20036;-67
2023/09/12 12:15:36;;;;;;;19.48;7.53;;;32.80;72.90;;;;;;5030061;28;20060;-67
2023/09/12 12:18:41;;;;;;;20.00;7.35;;;33.60;70.90;;;;;;5031008;28;20528;-67
2023/09/12 12:21:45;;;;;;;10.88;6.70;;;34.30;69.80;;;;;;5030765;28;20058;-67
2023/09/12 12:24:51;;;;;;;14.82;6.70;;;34.50;69.60;;;;;;5030871;28;20052;-67
2023/09/12 12:27:55;;;;;;;13.43;6.93;;;34.50;68.50;;;;;;5030971;28;20057;-67
2023/09/12 12:30:59;;;;;;;13.20;6.60;;;34.50;68.10;;;;;;5030773;28;20068;-67
2023/09/12 12:34:05;;;;;;;18.83;6.43;;;34.50;68.40;;;;;;5030627;28;20409;-67
2023/09/12 12:37:11;;;;;;;10.43;5.95;;;34.40;67.40;;;;;;5030938;28;20049;-67
2023/09/12 12:40:16;;;;;;;25.63;7.78;;;34.50;67.30;;;;;;5030554;28;20080;-67
2023/09/12 12:43:22;;;;;;;15.90;7.03;;;34.50;68.80;;;;;;5030633;28;20497;-68
2023/09/12 12:46:28;;;;;;;16.98;7.00;;;34.60;67.20;;;;;;5030476;28;20056;-68
2023/09/12 12:49:38;;;;;;;16.67;6.80;;;34.50;67.80;;;;;;5027798;28;20052;-67
2023/09/12 12:52:42;;;;;;;12.68;6.63;;;34.60;67.70;;;;;;5027648;28;20048;-68
2023/09/12 12:55:46;;;;;;;11.77;6.50;;;34.80;65.90;;;;;;5029151;28;20512;-67
2023/09/12 12:59:02;;;;;;;10.50;6.13;;;34.80;67.50;;;;;;5029382;28;20151;-68
2023/09/12 13:02:06;;;;;;;13.60;6.85;;;34.70;68.50;;;;;;5030215;28;20057;-68
2023/09/12 13:05:26;;;;;;;7.90;5.63;;;35.00;68.80;;;;;;5030433;28;20052;-68
2023/09/12 13:08:30;;;;;;;14.43;6.85;;;34.80;68.00;;;;;;5030354;28;20049;-68
2023/09/12 13:11:34;;;;;;;13.43;6.70;;;34.50;69.90;;;;;;5030453;28;20040;-68
2023/09/12 13:14:38;;;;;;;18.50;7.40;;;34.80;69.60;;;;;;5030417;28;20511;-69
2023/09/12 13:17:42;;;;;;;12.60;6.45;;;34.80;70.20;;;;;;5031263;28;20060;-68
2023/09/12 13:20:46;;;;;;;11.85;6.30;;;34.50;70.70;;;;;;5033989;28;20424;-68
2023/09/12 13:23:51;;;;;;;10.35;7.03;;;34.30;71.50;;;;;;5034191;28;20052;-69
2023/09/12 13:26:54;;;;;;;13.35;7.22;;;34.40;71.90;;;;;;5034050;28;20065;-68
2023/09/12 13:29:58;;;;;;;9.63;6.65;;;34.40;71.90;;;;;;5034060;28;20048;-68
2023/09/12 13:33:03;;;;;;;17.73;7.72;;;34.60;71.30;;;;;;5033862;28;20068;-68
2023/09/12 13:36:08;;;;;;;9.07;6.20;;;34.70;71.10;;;;;;5033695;28;20041;-68
2023/09/12 13:39:12;;;;;;;19.42;6.78;;;34.80;71.10;;;;;;5033955;28;20067;-68
2023/09/12 13:42:18;;;;;;;15.68;7.10;;;35.10;70.60;;;;;;5033769;28;20113;-68
2023/09/12 13:45:22;;;;;;;12.43;6.90;;;35.00;71.00;;;;;;5033782;28;20052;-68
2023/09/12 13:48:26;;;;;;;11.00;6.88;;;34.90;71.50;;;;;;5033424;28;20495;-68
2023/09/12 13:51:30;;;;;;;10.95;7.10;;;34.90;71.20;;;;;;5033567;28;20052;-68
2023/09/12 13:54:34;;;;;;;13.35;6.85;;;35.10;71.00;;;;;;5033581;28;20048;-68
2023/09/12 13:57:38;;;;;;;18.15;6.80;;;34.70;72.20;;;;;;5033363;28;20045;-68
2023/09/12 14:00:42;;;;;;;13.88;7.53;;;34.70;71.70;;;;;;5033040;28;20041;-68
2023/09/12 14:03:46;;;;;;;16.23;6.65;;;34.70;71.80;;;;;;5033125;28;20060;-68
2023/09/12 14:06:50;;;;;;;10.88;6.65;;;34.70;72.20;;;;;;5033195;28;20101;-68
2023/09/12 14:09:55;;;;;;;18.25;8.30;;;34.50;72.80;;;;;;5033031;28;20045;-67
2023/09/12 14:12:59;;;;;;;11.93;8.57;;;34.30;72.50;;;;;;5032659;28;20052;-67
2023/09/12 14:16:22;;;;;;;13.32;9.40;;;34.00;73.80;;;;;;5032998;28;20041;-67
2023/09/12 14:19:26;;;;;;;18.08;8.55;;;33.70;74.80;;;;;;5033040;28;20049;-66
2023/09/12 14:22:30;;;;;;;26.27;11.82;;;33.60;75.00;;;;;;5033150;28;20056;-66
2023/09/12 14:25:34;;;;;;;21.00;9.77;;;33.40;75.30;;;;;;5031962;28;20501;-66
2023/09/12 14:28:38;;;;;;;13.90;9.20;;;33.20;75.60;;;;;;5032231;28;20079;-68
2023/09/12 14:31:49;;;;;;;23.25;11.60;;;33.00;76.40;;;;;;5032815;28;20060;-67
2023/09/12 14:34:57;;;;;;;27.15;11.25;;;33.00;76.10;;;;;;5032572;28;20053;-68
2023/09/12 14:38:01;;;;;;;15.80;8.27;;;33.00;75.90;;;;;;5032931;28;20060;-66
2023/09/12 14:41:05;;;;;;;13.85;7.60;;;33.00;75.90;;;;;;5032476;28;20048;-68
2023/09/12 14:44:09;;;;;;;15.30;8.73;;;33.10;76.00;;;;;;5032343;28;20496;-68
2023/09/12 14:47:13;;;;;;;15.70;8.93;;;33.30;75.40;;;;;;5032606;28;20108;-67
2023/09/12 14:50:17;;;;;;;15.10;7.22;;;33.30;75.80;;;;;;5032264;28;20092;-68
2023/09/12 14:53:21;;;;;;;34.03;8.93;;;33.30;75.70;;;;;;5032398;28;20044;-67
2023/09/12 14:56:24;;;;;;;18.70;7.63;;;33.20;75.90;;;;;;5032434;28;20405;-67
2023/09/12 14:59:28;;;;;;;16.45;8.10;;;33.50;75.50;;;;;;5031697;28;20037;-67
2023/09/12 15:02:32;;;;;;;20.40;10.50;;;33.70;74.60;;;;;;5031783;28;20061;-65
2023/09/12 15:05:39;;;;;;;15.07;10.20;;;33.40;75.30;;;;;;5031869;28;20504;-67
2023/09/12 15:08:43;;;;;;;19.60;11.73;;;33.30;75.40;;;;;;5032014;28;20048;-66
2023/09/12 15:11:47;;;;;;;22.80;12.98;;;33.10;75.90;;;;;;5032147;28;20037;-67
2023/09/12 15:14:54;;;;;;;15.98;9.68;;;32.50;76.10;;;;;;5032166;28;20056;-67
2023/09/12 15:17:59;;;;;;;32.30;17.70;;;32.00;77.30;;;;;;5031700;28;20040;-67
2023/09/12 15:21:04;;;;;;;13.73;9.88;;;31.60;77.70;;;;;;5031662;28;20057;-66
2023/09/12 15:24:08;;;;;;;16.67;8.00;;;31.30;78.70;;;;;;5031034;28;20044;-67
2023/09/12 15:27:12;;;;;;;12.93;8.85;;;31.00;79.50;;;;;;5031848;28;20048;-68
2023/09/12 15:30:16;;;;;;;14.98;8.40;;;30.80;79.20;;;;;;5031575;28;20060;-67
2023/09/12 15:33:23;;;;;;;15.93;7.88;;;30.70;79.90;;;;;;5031807;28;20048;-68
2023/09/12 15:36:27;;;;;;;20.95;10.48;;;30.60;79.50;;;;;;5031750;28;20040;-67
2023/09/12 15:39:31;;;;;;;19.15;10.52;;;30.50;79.80;;;;;;5031364;28;20068;-67
2023/09/12 15:42:35;;;;;;;14.25;7.90;;;30.40;80.50;;;;;;5031362;28;20049;-66
2023/09/12 15:45:39;;;;;;;13.35;8.43;;;30.30;80.50;;;;;;5031375;28;20131;-67
2023/09/12 15:48:43;;;;;;;18.83;9.60;;;30.10;80.60;;;;;;5031292;28;20044;-68